David J. Cooper — WDF9940 — position and weather

sailwx.info

Track history (hours):
 
Tides and Currents Weather Stations Pressure Air Temp Water Temp Dewpoint Dewpoint Depression Visibility Wind Speed Wind Dir Waves Ship Positions

David J. Cooper

More information available from US FCC via Universal Licensing System and Coast Guard Vessel Documentation Center.

Last reported at 2014-Sep-18 11:24 UTC. Time now 2014-Sep-20 01:52 UTC.
Position N 29°56' W 090°19'.

Length 29 m; draft 7 m.

Type: Tug. MMSI: 367510430.

Date/timePositionNaut miles runAvg speedWind from/ knotsBaromVisibWave heightAir tempDewpointWater temp
2014-Sep-18 11:24N 29°56' W 090°19'8 9.5
2014-Sep-18 10:33N 29°60' W 090°27'7 7.2
2014-Sep-18 09:32N 30°03' W 090°35'0 0.0
2014-Sep-18 08:32N 30°03' W 090°35'0 0.0
2014-Sep-18 07:32N 30°03' W 090°35'0 0.0
2014-Sep-18 06:27N 30°03' W 090°35'0 0.0
2014-Sep-18 05:33N 30°03' W 090°35'0 0.0
2014-Sep-18 04:33N 30°03' W 090°35'0 0.0
2014-Sep-18 03:33N 30°03' W 090°35'0 0.0
2014-Sep-18 02:33N 30°03' W 090°35'0 0.0
2014-Sep-18 01:33N 30°03' W 090°35'0 0.4
2014-Sep-18 00:34N 30°03' W 090°35'0 0.0
2014-Sep-17 23:33N 30°03' W 090°35'0 0.3
2014-Sep-17 22:31N 30°03' W 090°35'0 0.0
2014-Sep-17 21:31N 30°03' W 090°35'0 0.0
2014-Sep-17 20:32N 30°03' W 090°35'13 1.4
2014-Sep-17 11:16N 30°03' W 090°50'  
2014-Sep-15 01:15N 30°01' W 090°47'6 8.8
2014-Sep-15 00:33N 30°03' W 090°40'4 4.1
2014-Sep-14 23:33N 30°03' W 090°35'0 0.0
2014-Sep-14 22:33N 30°03' W 090°35'0 0.0
2014-Sep-14 21:33N 30°03' W 090°35'0 0.0
2014-Sep-14 20:33N 30°03' W 090°35'0 0.0
2014-Sep-14 19:33N 30°03' W 090°35'0 0.0
2014-Sep-14 18:33N 30°03' W 090°35'0 0.0
2014-Sep-14 17:33N 30°03' W 090°35'0 0.0
2014-Sep-14 16:33N 30°03' W 090°35'0 0.0
2014-Sep-14 15:33N 30°03' W 090°35'0 0.0
2014-Sep-14 14:33N 30°03' W 090°35'0 0.0
2014-Sep-14 13:33N 30°03' W 090°35'0 0.0
2014-Sep-14 12:33N 30°03' W 090°35'0 0.0
2014-Sep-14 11:33N 30°03' W 090°35'0 0.0
2014-Sep-14 10:33N 30°03' W 090°35'0 0.0
2014-Sep-14 09:33N 30°03' W 090°35'0 0.0
2014-Sep-14 08:33N 30°03' W 090°35'0 0.0
2014-Sep-14 07:33N 30°03' W 090°35'0 0.0
2014-Sep-14 06:33N 30°03' W 090°35'0 0.0
2014-Sep-14 05:33N 30°03' W 090°35'0 0.0
2014-Sep-14 04:33N 30°03' W 090°35'0 0.0
2014-Sep-14 03:33N 30°03' W 090°35'0 0.0
2014-Sep-14 02:33N 30°03' W 090°35'0 0.0
2014-Sep-14 01:33N 30°03' W 090°35'0 0.0
2014-Sep-13 21:33N 30°03' W 090°35'4 4.4
2014-Sep-13 20:33N 30°03' W 090°40'5 0.3
2014-Sep-13 04:33N 30°03' W 090°35'0 0.0
2014-Sep-13 03:33N 30°03' W 090°35'0 0.0
2014-Sep-13 02:33N 30°03' W 090°35'0 0.0
2014-Sep-13 01:33N 30°03' W 090°35'0 0.0
2014-Sep-13 00:33N 30°03' W 090°35'0 0.0
2014-Sep-12 23:33N 30°03' W 090°35'0 0.0
2014-Sep-12 22:33N 30°03' W 090°35'0 0.0
2014-Sep-12 21:33N 30°03' W 090°35'0 0.0
2014-Sep-12 20:33N 30°03' W 090°35'0 0.0
2014-Sep-12 19:33N 30°03' W 090°35'0 0.0
2014-Sep-12 18:33N 30°03' W 090°35'0 0.0
2014-Sep-12 17:33N 30°03' W 090°35'0 0.0
2014-Sep-12 16:33N 30°03' W 090°35'0 0.0
2014-Sep-12 15:33N 30°03' W 090°35'0 0.0
2014-Sep-12 14:33N 30°03' W 090°35'0 0.0
2014-Sep-12 13:33N 30°03' W 090°35'0 0.4
2014-Sep-12 12:33N 30°03' W 090°34'0 0.4
2014-Sep-12 11:33N 30°03' W 090°35'0 0.0
2014-Sep-12 10:33N 30°03' W 090°35'0 0.0
2014-Sep-12 09:33N 30°03' W 090°35'0 0.0
2014-Sep-12 08:33N 30°03' W 090°35'0 0.0
2014-Sep-12 07:33N 30°03' W 090°35'0 0.0
2014-Sep-12 06:33N 30°03' W 090°35'0 0.3
2014-Sep-12 05:33N 30°03' W 090°35'1 0.7
2014-Sep-12 04:33N 30°03' W 090°36'1 1.2
2014-Sep-12 03:33N 30°03' W 090°35'0 0.3
2014-Sep-12 02:33N 30°03' W 090°35'0 0.0
2014-Sep-12 01:33N 30°03' W 090°35'0 0.0
2014-Sep-12 00:33N 30°03' W 090°35'0 0.0
2014-Sep-11 23:33N 30°03' W 090°35'0 0.0
2014-Sep-11 22:33N 30°03' W 090°35'0 0.0
2014-Sep-11 21:33N 30°03' W 090°35'0 0.0
2014-Sep-11 20:33N 30°03' W 090°35'0 0.0
2014-Sep-11 19:33N 30°03' W 090°35'0 0.0
2014-Sep-11 18:33N 30°03' W 090°35'0 0.0
2014-Sep-11 17:33N 30°03' W 090°35'0 0.0
2014-Sep-11 16:33N 30°03' W 090°35'0 0.0
2014-Sep-11 15:33N 30°03' W 090°35'0 0.0
2014-Sep-11 14:33N 30°03' W 090°35'0 0.0
2014-Sep-11 13:33N 30°03' W 090°35'0 0.3
2014-Sep-11 12:33N 30°03' W 090°35'1 0.7
2014-Sep-11 11:33N 30°03' W 090°34'1 0.7
2014-Sep-11 10:33N 30°03' W 090°35'1 0.9
2014-Sep-11 09:33N 30°03' W 090°34'4 4.3
2014-Sep-11 08:33N 30°03' W 090°29'0 0.0
2014-Sep-11 07:33N 30°03' W 090°29'0 0.0
2014-Sep-11 06:33N 30°03' W 090°29'0 0.0
2014-Sep-11 05:33N 30°03' W 090°29'0 0.0
2014-Sep-11 04:33N 30°03' W 090°29'0 0.0
2014-Sep-11 03:33N 30°03' W 090°29'0 0.0
2014-Sep-11 02:33N 30°03' W 090°29'0 0.0
2014-Sep-11 01:33N 30°03' W 090°29'0 0.0
2014-Sep-11 00:33N 30°03' W 090°29'0 0.0
2014-Sep-10 23:33N 30°03' W 090°29'0 0.0
2014-Sep-10 22:33N 30°03' W 090°29'0 0.0
2014-Sep-10 12:33N 30°03' W 090°29'0 0.0
2014-Sep-10 11:28N 30°03' W 090°29'0 0.0
2014-Sep-10 10:22N 30°03' W 090°29'0 0.0
2014-Sep-10 09:03N 30°03' W 090°29'0 0.0
2014-Sep-10 08:33N 30°03' W 090°29'0 0.0
2014-Sep-10 07:32N 30°03' W 090°29'0 0.0
2014-Sep-10 06:33N 30°03' W 090°29'0 0.0
2014-Sep-10 05:21N 30°03' W 090°29'0 0.0
2014-Sep-10 04:05N 30°03' W 090°29'0 0.0
2014-Sep-10 03:32N 30°03' W 090°29'0 0.0
2014-Sep-10 02:33N 30°03' W 090°29'0 0.0
2014-Sep-10 01:29N 30°03' W 090°29'0 0.0
2014-Sep-10 00:33N 30°03' W 090°29'0 0.1
2014-Sep-09 23:33N 30°03' W 090°29'0 0.0
2014-Sep-09 22:33N 30°03' W 090°29'0 0.0
2014-Sep-09 12:33N 30°03' W 090°29'0 0.1
2014-Sep-09 11:33N 30°03' W 090°29'0 0.0
2014-Sep-09 10:33N 30°03' W 090°29'0 0.0
2014-Sep-09 09:33N 30°03' W 090°29'0 0.0
2014-Sep-09 08:33N 30°03' W 090°29'0 0.0
2014-Sep-09 07:33N 30°03' W 090°29'1 0.8
2014-Sep-09 06:33N 30°03' W 090°30'1 0.8
2014-Sep-09 05:30N 30°03' W 090°29'4 4.7
2014-Sep-09 04:33N 30°03' W 090°34'0 0.0
2014-Sep-09 03:33N 30°03' W 090°34'0 0.0
2014-Sep-09 02:33N 30°03' W 090°34'0 0.0
2014-Sep-09 01:33N 30°03' W 090°34'0 0.0
2014-Sep-09 00:33N 30°03' W 090°34'0 0.0
2014-Sep-08 23:33N 30°03' W 090°34'0 0.0
2014-Sep-08 22:33N 30°03' W 090°34'0 0.0
2014-Sep-08 21:33N 30°03' W 090°34'0 0.0
2014-Sep-08 20:33N 30°03' W 090°34'0 0.0
2014-Sep-08 19:33N 30°03' W 090°34'0 0.0
2014-Sep-08 18:33N 30°03' W 090°34'0 0.0
2014-Sep-08 17:33N 30°03' W 090°34'0 0.0
2014-Sep-08 16:33N 30°03' W 090°34'0 0.0
2014-Sep-08 15:33N 30°03' W 090°34'0 0.0
2014-Sep-08 14:33N 30°03' W 090°34'0 0.0
2014-Sep-08 13:33N 30°03' W 090°34'0 0.0
2014-Sep-08 12:33N 30°03' W 090°34'0 0.0
2014-Sep-08 11:33N 30°03' W 090°34'  
Track history (hours):
 
Tides and Currents Weather Stations Pressure Air Temp Water Temp Dewpoint Dewpoint Depression Visibility Wind Speed Wind Dir Waves Ship Positions

David J. Cooper

More information available from US FCC via Universal Licensing System and Coast Guard Vessel Documentation Center.

Last reported at 2014-Sep-18 11:24 UTC. Time now 2014-Sep-20 01:52 UTC.
Position N 29°56' W 090°19'.

Length 29 m; draft 7 m.

Type: Tug. MMSI: 367510430.

Date/timePositionNaut miles runAvg speedWind from/ knotsBaromVisibWave heightAir tempDewpointWater temp
2014-Sep-18 11:24N 29°56' W 090°19'8 9.5
2014-Sep-18 10:33N 29°60' W 090°27'7 7.2
2014-Sep-18 09:32N 30°03' W 090°35'0 0.0
2014-Sep-18 08:32N 30°03' W 090°35'0 0.0
2014-Sep-18 07:32N 30°03' W 090°35'0 0.0
2014-Sep-18 06:27N 30°03' W 090°35'0 0.0
2014-Sep-18 05:33N 30°03' W 090°35'0 0.0
2014-Sep-18 04:33N 30°03' W 090°35'0 0.0
2014-Sep-18 03:33N 30°03' W 090°35'0 0.0
2014-Sep-18 02:33N 30°03' W 090°35'0 0.0
2014-Sep-18 01:33N 30°03' W 090°35'0 0.4
2014-Sep-18 00:34N 30°03' W 090°35'0 0.0
2014-Sep-17 23:33N 30°03' W 090°35'0 0.3
2014-Sep-17 22:31N 30°03' W 090°35'0 0.0
2014-Sep-17 21:31N 30°03' W 090°35'0 0.0
2014-Sep-17 20:32N 30°03' W 090°35'13 1.4
2014-Sep-17 11:16N 30°03' W 090°50'  
2014-Sep-15 01:15N 30°01' W 090°47'6 8.8
2014-Sep-15 00:33N 30°03' W 090°40'4 4.1
2014-Sep-14 23:33N 30°03' W 090°35'0 0.0
2014-Sep-14 22:33N 30°03' W 090°35'0 0.0
2014-Sep-14 21:33N 30°03' W 090°35'0 0.0
2014-Sep-14 20:33N 30°03' W 090°35'0 0.0
2014-Sep-14 19:33N 30°03' W 090°35'0 0.0
2014-Sep-14 18:33N 30°03' W 090°35'0 0.0
2014-Sep-14 17:33N 30°03' W 090°35'0 0.0
2014-Sep-14 16:33N 30°03' W 090°35'0 0.0
2014-Sep-14 15:33N 30°03' W 090°35'0 0.0
2014-Sep-14 14:33N 30°03' W 090°35'0 0.0
2014-Sep-14 13:33N 30°03' W 090°35'0 0.0
2014-Sep-14 12:33N 30°03' W 090°35'0 0.0
2014-Sep-14 11:33N 30°03' W 090°35'0 0.0
2014-Sep-14 10:33N 30°03' W 090°35'0 0.0
2014-Sep-14 09:33N 30°03' W 090°35'0 0.0
2014-Sep-14 08:33N 30°03' W 090°35'0 0.0
2014-Sep-14 07:33N 30°03' W 090°35'0 0.0
2014-Sep-14 06:33N 30°03' W 090°35'0 0.0
2014-Sep-14 05:33N 30°03' W 090°35'0 0.0
2014-Sep-14 04:33N 30°03' W 090°35'0 0.0
2014-Sep-14 03:33N 30°03' W 090°35'0 0.0
2014-Sep-14 02:33N 30°03' W 090°35'0 0.0
2014-Sep-14 01:33N 30°03' W 090°35'0 0.0
2014-Sep-13 21:33N 30°03' W 090°35'4 4.4
2014-Sep-13 20:33N 30°03' W 090°40'5 0.3
2014-Sep-13 04:33N 30°03' W 090°35'0 0.0
2014-Sep-13 03:33N 30°03' W 090°35'0 0.0
2014-Sep-13 02:33N 30°03' W 090°35'0 0.0
2014-Sep-13 01:33N 30°03' W 090°35'0 0.0
2014-Sep-13 00:33N 30°03' W 090°35'0 0.0
2014-Sep-12 23:33N 30°03' W 090°35'0 0.0
2014-Sep-12 22:33N 30°03' W 090°35'0 0.0
2014-Sep-12 21:33N 30°03' W 090°35'0 0.0
2014-Sep-12 20:33N 30°03' W 090°35'0 0.0
2014-Sep-12 19:33N 30°03' W 090°35'0 0.0
2014-Sep-12 18:33N 30°03' W 090°35'0 0.0
2014-Sep-12 17:33N 30°03' W 090°35'0 0.0
2014-Sep-12 16:33N 30°03' W 090°35'0 0.0
2014-Sep-12 15:33N 30°03' W 090°35'0 0.0
2014-Sep-12 14:33N 30°03' W 090°35'0 0.0
2014-Sep-12 13:33N 30°03' W 090°35'0 0.4
2014-Sep-12 12:33N 30°03' W 090°34'0 0.4
2014-Sep-12 11:33N 30°03' W 090°35'0 0.0
2014-Sep-12 10:33N 30°03' W 090°35'0 0.0
2014-Sep-12 09:33N 30°03' W 090°35'0 0.0
2014-Sep-12 08:33N 30°03' W 090°35'0 0.0
2014-Sep-12 07:33N 30°03' W 090°35'0 0.0
2014-Sep-12 06:33N 30°03' W 090°35'0 0.3
2014-Sep-12 05:33N 30°03' W 090°35'1 0.7
2014-Sep-12 04:33N 30°03' W 090°36'1 1.2
2014-Sep-12 03:33N 30°03' W 090°35'0 0.3
2014-Sep-12 02:33N 30°03' W 090°35'0 0.0
2014-Sep-12 01:33N 30°03' W 090°35'0 0.0
2014-Sep-12 00:33N 30°03' W 090°35'0 0.0
2014-Sep-11 23:33N 30°03' W 090°35'0 0.0
2014-Sep-11 22:33N 30°03' W 090°35'0 0.0
2014-Sep-11 21:33N 30°03' W 090°35'0 0.0
2014-Sep-11 20:33N 30°03' W 090°35'0 0.0
2014-Sep-11 19:33N 30°03' W 090°35'0 0.0
2014-Sep-11 18:33N 30°03' W 090°35'0 0.0
2014-Sep-11 17:33N 30°03' W 090°35'0 0.0
2014-Sep-11 16:33N 30°03' W 090°35'0 0.0
2014-Sep-11 15:33N 30°03' W 090°35'0 0.0
2014-Sep-11 14:33N 30°03' W 090°35'0 0.0
2014-Sep-11 13:33N 30°03' W 090°35'0 0.3
2014-Sep-11 12:33N 30°03' W 090°35'1 0.7
2014-Sep-11 11:33N 30°03' W 090°34'1 0.7
2014-Sep-11 10:33N 30°03' W 090°35'1 0.9
2014-Sep-11 09:33N 30°03' W 090°34'4 4.3
2014-Sep-11 08:33N 30°03' W 090°29'0 0.0
2014-Sep-11 07:33N 30°03' W 090°29'0 0.0
2014-Sep-11 06:33N 30°03' W 090°29'0 0.0
2014-Sep-11 05:33N 30°03' W 090°29'0 0.0
2014-Sep-11 04:33N 30°03' W 090°29'0 0.0
2014-Sep-11 03:33N 30°03' W 090°29'0 0.0
2014-Sep-11 02:33N 30°03' W 090°29'0 0.0
2014-Sep-11 01:33N 30°03' W 090°29'0 0.0
2014-Sep-11 00:33N 30°03' W 090°29'0 0.0
2014-Sep-10 23:33N 30°03' W 090°29'0 0.0
2014-Sep-10 22:33N 30°03' W 090°29'0 0.0
2014-Sep-10 12:33N 30°03' W 090°29'0 0.0
2014-Sep-10 11:28N 30°03' W 090°29'0 0.0
2014-Sep-10 10:22N 30°03' W 090°29'0 0.0
2014-Sep-10 09:03N 30°03' W 090°29'0 0.0
2014-Sep-10 08:33N 30°03' W 090°29'0 0.0
2014-Sep-10 07:32N 30°03' W 090°29'0 0.0
2014-Sep-10 06:33N 30°03' W 090°29'0 0.0
2014-Sep-10 05:21N 30°03' W 090°29'0 0.0
2014-Sep-10 04:05N 30°03' W 090°29'0 0.0
2014-Sep-10 03:32N 30°03' W 090°29'0 0.0
2014-Sep-10 02:33N 30°03' W 090°29'0 0.0
2014-Sep-10 01:29N 30°03' W 090°29'0 0.0
2014-Sep-10 00:33N 30°03' W 090°29'0 0.1
2014-Sep-09 23:33N 30°03' W 090°29'0 0.0
2014-Sep-09 22:33N 30°03' W 090°29'0 0.0
2014-Sep-09 12:33N 30°03' W 090°29'0 0.1
2014-Sep-09 11:33N 30°03' W 090°29'0 0.0
2014-Sep-09 10:33N 30°03' W 090°29'0 0.0
2014-Sep-09 09:33N 30°03' W 090°29'0 0.0
2014-Sep-09 08:33N 30°03' W 090°29'0 0.0
2014-Sep-09 07:33N 30°03' W 090°29'1 0.8
2014-Sep-09 06:33N 30°03' W 090°30'1 0.8
2014-Sep-09 05:30N 30°03' W 090°29'4 4.7
2014-Sep-09 04:33N 30°03' W 090°34'0 0.0
2014-Sep-09 03:33N 30°03' W 090°34'0 0.0
2014-Sep-09 02:33N 30°03' W 090°34'0 0.0
2014-Sep-09 01:33N 30°03' W 090°34'0 0.0
2014-Sep-09 00:33N 30°03' W 090°34'0 0.0
2014-Sep-08 23:33N 30°03' W 090°34'0 0.0
2014-Sep-08 22:33N 30°03' W 090°34'0 0.0
2014-Sep-08 21:33N 30°03' W 090°34'0 0.0
2014-Sep-08 20:33N 30°03' W 090°34'0 0.0
2014-Sep-08 19:33N 30°03' W 090°34'0 0.0
2014-Sep-08 18:33N 30°03' W 090°34'0 0.0
2014-Sep-08 17:33N 30°03' W 090°34'0 0.0
2014-Sep-08 16:33N 30°03' W 090°34'0 0.0
2014-Sep-08 15:33N 30°03' W 090°34'0 0.0
2014-Sep-08 14:33N 30°03' W 090°34'0 0.0
2014-Sep-08 13:33N 30°03' W 090°34'0 0.0
2014-Sep-08 12:33N 30°03' W 090°34'0 0.0
2014-Sep-08 11:33N 30°03' W 090°34'  

Dump ship's entire track history